Grand Isle, LA

6:06 AM CDT on July 30, 2014 (GMT -0500)
Grand Isle (KAXO) Elev 7 ft | 29.25 °N, 89.97 °W | Change Station

Current weather conditions updated 1 hour ago

Clear
Clear
81 °F
Feels Like 85 °F
N
9
Wind Variable Wind from NNE

Today is forecast to be Warmer than yesterday.

Today
High -- | Low -- °F
--% Chance of Precip.
Yesterday
High -- | Low -- °F
Precip. -- in
6:19 AM 7:53 PM
Waxing Crescent, 11% visible
Pressure 30.01 in
Visibility 7.0 miles
Clouds Clear
Heat Index 85 °F
Dew Point 73 °F
Humidity 79%
Rainfall 0.00 in
Snow Depth Not available.
UV 0 out of 12
Pollen 3.20 out of 12
Air Quality Not available.
Flu Activity Not available.
SPECI KAXO 301001Z 03008KT 7SM SKC 27/23 A3001

More Conditions Fewer Conditions

Pressure 30.01 in
Visibility 7.0 miles
Clouds Clear
Heat Index 85 °F
Dew Point 73 °F
Humidity 79%
Rainfall 0.00 in
Snow Depth Not available.
UV 0 out of 12
Pollen 3.20 out of 12
Air Quality Not available.
Flu Activity Not available.
SPECI KAXO 301001Z 03008KT 7SM SKC 27/23 A3001

More Conditions Fewer Conditions

10-Day Weather Forecast

Almanac

Astronomy

Jul. 30, 2014 Rise Set
Actual Time 6:19 AM CDT 7:53 PM CDT
Civil Twilight 5:53 AM CDT 8:18 PM CDT
Nautical Twilight 5:22 AM CDT 8:49 PM CDT
Astronomical Twilight 4:49 AM CDT 9:22 PM CDT
Moon 9:30 AM CDT 9:57 PM CDT
Length of Visible Light 14h 25m
Length of Day
13h 34m
Tomorrow will be 1m 16s shorter.
Waxing Crescent, 11% of the Moon is Illuminated
Today
Waxing Crescent
Aug 3
First Quarter
Aug 10
Full
Aug 17
Last Quarter
Aug 25
New

Today's Extremes

State Highs State Lows

Community

WunderPhotos

Upload Photos

1,739,039 photos uploaded!

WunderBlogs® & News

Nearby

Snow Depth

Station Depth Elevation
No new snow has been reported.

Earthquake Activity

City Distance Mag. Time & Date
No recent earthquake activity has been reported nearby.
Minimum magnitude displayed is 2.5.

Coastal Water Temperatures

Place Temperature
Pilot's Station East, SW Pass, LA 84.0 °F
Grand Isle, LA 86.0 °F
Bayou Gauche, LA 86.0 °F
Shell Beach, LA 80.1 °F

Nearby Weather Stations

Station Location Temp. Heat Index Dew Point Humidity Wind Precip. Elev Updated Type
HOV / SPES / PSFH, Port Sulphur, LA 77.6 °F 80 °F 71 °F 80% East  at  3.0 mph 0.00 in / hr 3 ft 6:06 AM CDT Rapid Fire

Show More Stations Show Fewer Stations